createdAt,value
2023-03-05T00:00:44.348Z,91.39
2023-03-05T00:03:10.677Z,91.82
2023-03-05T00:05:37.069Z,92.04
2023-03-05T00:08:06.579Z,92.12
2023-03-05T00:10:32.938Z,92.22
2023-03-05T00:12:59.530Z,92.51
2023-03-05T00:15:25.905Z,92.74
2023-03-05T00:17:52.322Z,92.07
2023-03-05T00:20:18.811Z,91.42
2023-03-05T00:22:45.122Z,90.97
2023-03-05T00:25:11.506Z,91.72
2023-03-05T00:27:37.872Z,92.21
2023-03-05T00:30:04.618Z,91.79
2023-03-05T00:32:31.037Z,91.50
2023-03-05T00:34:57.347Z,90.55
2023-03-05T00:37:23.673Z,90.66
2023-03-05T00:39:49.980Z,91.04
2023-03-05T00:42:16.297Z,91.12
2023-03-05T00:44:42.607Z,91.26
2023-03-05T00:47:08.933Z,91.03
2023-03-05T00:49:35.248Z,91.34
2023-03-05T00:52:01.587Z,91.62
2023-03-05T00:54:27.937Z,91.48
2023-03-05T00:56:54.245Z,92.12
2023-03-05T00:59:20.565Z,92.28
2023-03-05T01:01:46.956Z,92.56
2023-03-05T01:04:13.326Z,92.49
2023-03-05T01:06:39.671Z,92.95
2023-03-05T01:09:05.940Z,93.20
2023-03-05T01:11:32.249Z,93.40
2023-03-05T01:13:58.551Z,94.06
2023-03-05T01:16:24.932Z,94.25
2023-03-05T01:18:51.310Z,94.16
2023-03-05T01:21:17.607Z,94.47
2023-03-05T01:23:43.915Z,94.90
2023-03-05T01:26:10.238Z,94.79
2023-03-05T01:28:36.577Z,94.81
2023-03-05T01:31:07.513Z,94.70
2023-03-05T01:33:33.845Z,94.80
2023-03-05T01:36:00.175Z,95.21
2023-03-05T01:38:26.574Z,95.22
2023-03-05T01:40:53.008Z,94.52
2023-03-05T01:43:28.346Z,94.20
2023-03-05T01:46:12.994Z,93.94
2023-03-05T01:48:42.520Z,94.76
2023-03-05T01:51:08.832Z,95.10
2023-03-05T01:53:36.084Z,95.66
2023-03-05T01:56:02.452Z,95.47
2023-03-05T01:58:29.333Z,94.96
2023-03-05T02:00:55.997Z,94.94
2023-03-05T02:03:23.966Z,95.24
2023-03-05T02:05:50.319Z,95.28
2023-03-05T02:08:20.318Z,95.57
2023-03-05T02:10:49.604Z,95.41
2023-03-05T02:13:22.047Z,95.58
2023-03-05T02:15:48.691Z,95.65
2023-03-05T02:18:16.916Z,96.07
2023-03-05T02:21:04.702Z,95.98
2023-03-05T02:23:33.742Z,96.01
2023-03-05T02:26:00.041Z,95.63
2023-03-05T02:28:38.035Z,95.65
2023-03-05T02:31:22.384Z,95.34
2023-03-05T02:33:50.052Z,94.88
2023-03-05T02:36:17.023Z,94.77
2023-03-05T02:38:45.801Z,94.25
2023-03-05T02:41:13.077Z,93.82
2023-03-05T02:43:39.418Z,94.10
2023-03-05T02:46:06.022Z,94.04
2023-03-05T02:48:32.676Z,94.85
2023-03-05T02:50:59.627Z,94.52
2023-03-05T02:53:26.010Z,94.39
2023-03-05T02:55:52.329Z,94.57
2023-03-05T02:58:18.712Z,94.31
2023-03-05T03:00:45.159Z,94.14
2023-03-05T03:03:11.478Z,94.04
2023-03-05T03:05:37.855Z,94.39
2023-03-05T03:08:04.490Z,93.52
2023-03-05T03:10:30.881Z,93.35
2023-03-05T03:12:57.337Z,93.11
2023-03-05T03:15:23.749Z,93.27
2023-03-05T03:17:50.102Z,93.67
2023-03-05T03:20:17.483Z,93.89
2023-03-05T03:22:45.434Z,94.04
2023-03-05T03:25:16.493Z,93.82
2023-03-05T03:27:42.869Z,93.42
2023-03-05T03:30:09.866Z,93.53
2023-03-05T03:32:36.298Z,93.84
2023-03-05T03:35:02.731Z,94.75
2023-03-05T03:37:29.981Z,95.20
2023-03-05T03:39:56.584Z,95.76
2023-03-05T03:42:23.126Z,96.23
2023-03-05T03:44:49.952Z,96.17
2023-03-05T03:47:17.213Z,96.15
2023-03-05T03:49:43.529Z,95.63
2023-03-05T03:52:09.841Z,95.46
2023-03-05T03:54:36.145Z,95.54
2023-03-05T03:57:02.433Z,95.78
2023-03-05T03:59:28.805Z,95.20
2023-03-05T04:01:55.231Z,95.31
2023-03-05T04:04:21.601Z,94.96
2023-03-05T04:06:47.921Z,95.37
2023-03-05T04:09:14.241Z,94.96
2023-03-05T04:11:40.531Z,94.64
2023-03-05T04:14:06.843Z,95.29
2023-03-05T04:16:33.212Z,95.34
2023-03-05T04:18:59.635Z,94.83
2023-03-05T04:21:25.948Z,94.66
2023-03-05T04:23:52.327Z,94.32
2023-03-05T04:26:18.653Z,94.06
2023-03-05T04:28:44.983Z,94.15
2023-03-05T04:31:11.350Z,94.74
2023-03-05T04:33:37.721Z,94.76
2023-03-05T04:36:04.285Z,94.41
2023-03-05T04:38:30.629Z,94.28
2023-03-05T04:40:56.937Z,94.47
2023-03-05T04:43:23.325Z,94.53
2023-03-05T04:45:49.627Z,94.60
2023-03-05T04:48:15.938Z,94.85
2023-03-05T04:50:42.296Z,94.33
2023-03-05T04:53:08.585Z,94.39
2023-03-05T04:55:34.886Z,93.45
2023-03-05T04:58:01.271Z,93.36
2023-03-05T05:00:27.630Z,93.29
2023-03-05T05:02:54.290Z,93.45
2023-03-05T05:05:24.514Z,94.27
2023-03-05T05:07:54.865Z,94.33
2023-03-05T05:10:21.195Z,94.51
2023-03-05T05:12:47.602Z,94.13
2023-03-05T05:15:14.210Z,93.91
2023-03-05T05:17:40.537Z,93.58
2023-03-05T05:20:08.040Z,93.73
2023-03-05T05:22:34.690Z,93.37
2023-03-05T05:25:01.299Z,93.65
2023-03-05T05:27:27.751Z,92.83
2023-03-05T05:29:54.060Z,93.52
2023-03-05T05:32:21.802Z,93.71
2023-03-05T05:34:48.793Z,93.60
2023-03-05T05:37:15.130Z,93.59
2023-03-05T05:39:41.542Z,93.41
2023-03-05T05:42:07.867Z,92.76
2023-03-05T05:44:34.188Z,93.36
2023-03-05T05:47:00.733Z,94.01
2023-03-05T05:49:27.017Z,94.60
2023-03-05T05:51:53.317Z,94.63
2023-03-05T05:54:19.626Z,94.71
2023-03-05T05:56:45.929Z,95.02
2023-03-05T05:59:12.237Z,95.06
2023-03-05T06:01:38.652Z,95.11
2023-03-05T06:04:04.979Z,95.55
2023-03-05T06:06:31.365Z,95.68
2023-03-05T06:08:57.648Z,95.35
2023-03-05T06:11:24.050Z,95.37
2023-03-05T06:13:50.511Z,95.36
2023-03-05T06:16:20.668Z,95.75
2023-03-05T06:18:47.586Z,95.82
2023-03-05T06:21:16.988Z,95.83
2023-03-05T06:23:44.680Z,96.25
2023-03-05T06:26:14.282Z,96.17
2023-03-05T06:28:41.069Z,96.32
2023-03-05T06:31:14.223Z,95.93
2023-03-05T06:33:41.471Z,95.59
2023-03-05T06:36:13.956Z,95.43
2023-03-05T06:38:40.902Z,95.58
2023-03-05T06:41:13.262Z,96.26
2023-03-05T06:43:42.118Z,96.00
2023-03-05T06:46:19.877Z,95.64
2023-03-05T06:48:47.241Z,95.43
2023-03-05T06:51:21.839Z,95.34
2023-03-05T06:53:49.677Z,95.65
2023-03-05T06:56:16.924Z,95.67
2023-03-05T06:58:56.792Z,95.46
2023-03-05T07:01:23.461Z,95.41
2023-03-05T07:03:51.713Z,95.53
2023-03-05T07:06:18.357Z,95.22
2023-03-05T07:08:44.730Z,95.60
2023-03-05T07:11:12.779Z,95.11
2023-03-05T07:13:39.112Z,94.16
2023-03-05T07:16:10.555Z,94.18
2023-03-05T07:18:36.996Z,93.97
2023-03-05T07:21:08.218Z,93.66
2023-03-05T07:23:35.640Z,93.69
2023-03-05T07:26:03.537Z,94.07
2023-03-05T07:28:30.466Z,94.39
2023-03-05T07:30:59.361Z,94.56
2023-03-05T07:33:26.917Z,94.35
2023-03-05T07:35:53.923Z,94.18
2023-03-05T07:38:20.659Z,94.66
2023-03-05T07:40:47.453Z,94.91
2023-03-05T07:43:14.789Z,95.37
2023-03-05T07:45:45.113Z,95.30
2023-03-05T07:48:16.645Z,95.55
2023-03-05T07:50:43.590Z,95.84
2023-03-05T07:53:10.204Z,95.36
2023-03-05T07:55:42.530Z,95.40
2023-03-05T07:58:08.949Z,95.73
2023-03-05T08:00:35.244Z,95.74
2023-03-05T08:03:01.619Z,95.13
2023-03-05T08:05:28.027Z,94.48
2023-03-05T08:07:54.338Z,94.21
2023-03-05T08:10:20.652Z,93.99
2023-03-05T08:12:47.031Z,93.74
2023-03-05T08:15:13.414Z,93.16
2023-03-05T08:17:39.841Z,92.86
2023-03-05T08:20:06.837Z,91.86
2023-03-05T08:22:34.043Z,90.74
2023-03-05T08:25:01.321Z,89.95
2023-03-05T08:27:27.678Z,89.44
2023-03-05T08:29:54.053Z,89.23
2023-03-05T08:32:20.466Z,88.28
2023-03-05T08:34:46.882Z,89.12
2023-03-05T08:37:13.214Z,88.59
2023-03-05T08:39:39.542Z,86.56
2023-03-05T08:42:08.822Z,86.43
2023-03-05T08:44:35.282Z,85.43
2023-03-05T08:47:02.043Z,85.88
2023-03-05T08:49:28.342Z,84.22
2023-03-05T08:51:54.672Z,85.29
2023-03-05T08:54:20.970Z,84.16
2023-03-05T08:56:47.266Z,84.81
2023-03-05T08:59:13.803Z,84.82
2023-03-05T09:01:40.269Z,84.00
2023-03-05T09:04:06.678Z,84.81
2023-03-05T09:06:33.303Z,83.87
2023-03-05T09:08:59.734Z,83.53
2023-03-05T09:11:26.231Z,83.52
2023-03-05T09:13:52.596Z,83.73
2023-03-05T09:16:20.042Z,81.62
2023-03-05T09:18:46.772Z,81.86
2023-03-05T09:21:15.909Z,82.69
2023-03-05T09:23:43.127Z,82.23
2023-03-05T09:26:11.728Z,81.28
2023-03-05T09:28:38.641Z,80.45
2023-03-05T09:31:06.638Z,80.78
2023-03-05T09:33:33.700Z,80.33
2023-03-05T09:36:00.752Z,79.74
2023-03-05T09:38:28.282Z,80.11
2023-03-05T09:41:00.693Z,79.18
2023-03-05T09:43:54.848Z,78.36
2023-03-05T09:46:44.546Z,78.48
2023-03-05T09:49:52.792Z,80.45
2023-03-05T09:52:34.618Z,78.26
2023-03-05T09:55:01.945Z,77.17
2023-03-05T09:57:44.475Z,76.00
2023-03-05T10:00:44.731Z,76.74
2023-03-05T10:03:28.123Z,78.93
2023-03-05T10:06:06.455Z,82.50
2023-03-05T10:08:48.855Z,83.59
2023-03-05T10:11:47.052Z,83.42
2023-03-05T10:14:22.124Z,84.14
2023-03-05T10:17:06.818Z,83.30
2023-03-05T10:19:52.480Z,83.33
2023-03-05T10:22:24.472Z,81.86
2023-03-05T10:25:17.114Z,81.57
2023-03-05T10:27:53.735Z,81.56
2023-03-05T10:30:54.615Z,80.89
2023-03-05T10:33:39.136Z,80.62
2023-03-05T10:36:32.503Z,79.89
2023-03-05T10:39:15.254Z,78.45
2023-03-05T10:42:02.521Z,78.15
2023-03-05T10:44:37.336Z,75.14
2023-03-05T10:47:15.221Z,75.76
2023-03-05T10:49:49.628Z,75.03
2023-03-05T10:52:35.069Z,72.88
2023-03-05T10:55:01.629Z,70.70
2023-03-05T10:57:31.480Z,68.57
2023-03-05T11:00:00.773Z,67.77
2023-03-05T11:02:27.635Z,65.65
2023-03-05T11:04:54.156Z,65.20
2023-03-05T11:07:20.406Z,65.99
2023-03-05T11:10:17.477Z,67.43
2023-03-05T11:12:43.912Z,67.69
2023-03-05T11:15:10.160Z,69.01
2023-03-05T11:17:48.344Z,69.72
2023-03-05T11:20:20.391Z,68.01
2023-03-05T11:23:23.017Z,68.96
2023-03-05T11:26:12.498Z,70.50
2023-03-05T11:28:57.752Z,71.34
2023-03-05T11:31:26.188Z,70.60
2023-03-05T11:34:26.373Z,69.22
2023-03-05T11:36:52.623Z,69.65
2023-03-05T11:39:21.217Z,70.31
2023-03-05T11:42:01.200Z,70.37
2023-03-05T11:44:39.184Z,70.24
2023-03-05T11:47:18.494Z,69.09
2023-03-05T11:49:47.571Z,68.77
2023-03-05T11:52:28.617Z,68.17
2023-03-05T11:55:19.465Z,65.56
2023-03-05T11:57:57.812Z,63.37
2023-03-05T12:00:32.532Z,61.93
2023-03-05T12:03:08.002Z,62.42
2023-03-05T12:05:37.084Z,61.69
2023-03-05T12:08:04.079Z,63.10
2023-03-05T12:10:30.376Z,61.21
2023-03-05T12:13:12.246Z,60.49
2023-03-05T12:15:53.782Z,59.40
2023-03-05T12:18:25.846Z,61.11
2023-03-05T12:21:07.700Z,60.81
2023-03-05T12:23:47.317Z,60.35
2023-03-05T12:26:14.036Z,61.50
2023-03-05T12:28:43.140Z,62.19
2023-03-05T12:31:09.416Z,61.23
2023-03-05T12:33:40.176Z,60.18
2023-03-05T12:36:37.341Z,60.18
2023-03-05T12:39:42.300Z,62.78
2023-03-05T12:42:30.242Z,60.55
2023-03-05T12:45:11.864Z,62.37
2023-03-05T12:47:57.013Z,64.67
2023-03-05T12:50:26.288Z,63.71
2023-03-05T12:52:57.526Z,63.43
2023-03-05T12:55:43.796Z,61.79
2023-03-05T12:58:44.059Z,61.37
2023-03-05T13:01:29.073Z,61.41
2023-03-05T13:04:00.590Z,61.35
2023-03-05T13:06:29.523Z,60.81
2023-03-05T13:09:19.381Z,60.17
2023-03-05T13:11:49.746Z,59.08
2023-03-05T13:14:43.634Z,56.71
2023-03-05T13:17:31.336Z,57.76
2023-03-05T13:19:59.436Z,57.74
2023-03-05T13:22:25.752Z,57.89
2023-03-05T13:25:14.742Z,57.65
2023-03-05T13:27:42.020Z,57.76
2023-03-05T13:30:23.775Z,58.74
2023-03-05T13:32:52.574Z,59.10
2023-03-05T13:35:19.483Z,56.69
2023-03-05T13:37:46.076Z,56.87
2023-03-05T13:40:21.484Z,55.87
2023-03-05T13:42:47.814Z,57.73
2023-03-05T13:45:29.110Z,55.51
2023-03-05T13:48:02.692Z,56.00
2023-03-05T13:50:38.300Z,55.13
2023-03-05T13:53:23.160Z,55.37
2023-03-05T13:55:52.296Z,56.47
2023-03-05T13:58:53.984Z,56.06
2023-03-05T14:01:24.220Z,56.88
2023-03-05T14:03:52.342Z,56.33
2023-03-05T14:06:21.225Z,57.26
2023-03-05T14:09:01.393Z,55.86
2023-03-05T14:11:27.884Z,55.77
2023-03-05T14:14:07.964Z,53.90
2023-03-05T14:16:34.556Z,54.63
2023-03-05T14:19:03.746Z,55.57
2023-03-05T14:21:44.425Z,55.05
2023-03-05T14:24:21.444Z,56.05
2023-03-05T14:26:51.263Z,56.49
2023-03-05T14:29:20.868Z,56.97
2023-03-05T14:32:04.476Z,57.94
2023-03-05T14:34:33.827Z,56.95
2023-03-05T14:37:07.974Z,57.96
2023-03-05T14:39:52.430Z,57.04
2023-03-05T14:42:31.015Z,56.56
2023-03-05T14:45:00.435Z,56.85
2023-03-05T14:47:27.840Z,58.17
2023-03-05T14:49:54.279Z,56.83
2023-03-05T14:52:23.174Z,57.23
2023-03-05T14:54:49.773Z,57.31
2023-03-05T14:57:22.846Z,57.86
2023-03-05T14:59:49.469Z,58.89
2023-03-05T15:02:21.885Z,59.37
2023-03-05T15:04:48.335Z,60.25
2023-03-05T15:07:29.622Z,60.16
2023-03-05T15:09:56.076Z,60.77
2023-03-05T15:12:22.903Z,58.80
2023-03-05T15:14:49.229Z,59.24
2023-03-05T15:17:25.895Z,59.42
2023-03-05T15:19:52.210Z,58.99
2023-03-05T15:22:18.502Z,58.42
2023-03-05T15:24:45.241Z,57.56
2023-03-05T15:27:11.926Z,57.20
2023-03-05T15:29:38.397Z,58.29
2023-03-05T15:32:04.983Z,58.77
2023-03-05T15:34:31.814Z,59.51
2023-03-05T15:36:58.143Z,61.57
2023-03-05T15:39:24.494Z,61.26
2023-03-05T15:41:51.701Z,62.37
2023-03-05T15:44:18.858Z,63.34
2023-03-05T15:46:45.276Z,63.05
2023-03-05T15:49:11.831Z,63.95
2023-03-05T15:51:38.163Z,64.69
2023-03-05T15:54:04.706Z,64.66
2023-03-05T15:56:31.074Z,64.75
2023-03-05T15:58:57.369Z,64.10
2023-03-05T16:01:23.774Z,63.46
2023-03-05T16:03:51.093Z,63.29
2023-03-05T16:06:20.112Z,63.63
2023-03-05T16:08:47.145Z,64.51
2023-03-05T16:11:13.581Z,65.89
2023-03-05T16:13:41.620Z,65.28
2023-03-05T16:16:09.254Z,66.13
2023-03-05T16:18:41.709Z,66.56
2023-03-05T16:21:08.216Z,66.21
2023-03-05T16:23:34.716Z,65.53
2023-03-05T16:26:01.122Z,66.00
2023-03-05T16:28:27.470Z,65.76
2023-03-05T16:30:57.785Z,64.93
2023-03-05T16:33:24.762Z,66.02
2023-03-05T16:36:17.668Z,66.25
2023-03-05T16:38:44.015Z,66.68
2023-03-05T16:41:10.321Z,66.50
2023-03-05T16:43:36.651Z,67.12
2023-03-05T16:46:02.970Z,67.58
2023-03-05T16:48:29.847Z,67.26
2023-03-05T16:50:56.156Z,66.48
2023-03-05T16:53:22.473Z,67.07
2023-03-05T16:55:48.806Z,67.52
2023-03-05T16:58:15.127Z,67.59
2023-03-05T17:00:41.500Z,67.82
2023-03-05T17:03:07.827Z,68.26
2023-03-05T17:05:38.000Z,67.84
2023-03-05T17:08:04.803Z,67.98
2023-03-05T17:10:31.439Z,68.14
2023-03-05T17:12:57.826Z,67.98
2023-03-05T17:15:24.512Z,68.68
2023-03-05T17:17:50.916Z,69.16
2023-03-05T17:20:17.785Z,68.59
2023-03-05T17:22:44.276Z,68.99
2023-03-05T17:25:10.588Z,69.50
2023-03-05T17:27:37.294Z,69.83
2023-03-05T17:30:04.477Z,69.25
2023-03-05T17:32:30.823Z,69.48
2023-03-05T17:34:57.181Z,69.72
2023-03-05T17:37:23.562Z,70.08
2023-03-05T17:39:49.973Z,70.47
2023-03-05T17:42:16.493Z,70.76
2023-03-05T17:44:42.815Z,71.30
2023-03-05T17:47:09.141Z,71.42
2023-03-05T17:49:35.436Z,71.72
2023-03-05T17:52:01.777Z,70.32
2023-03-05T17:54:28.114Z,69.71
2023-03-05T17:56:55.670Z,70.96
2023-03-05T17:59:23.037Z,70.91
2023-03-05T18:01:49.486Z,71.16
2023-03-05T18:04:15.899Z,71.31
2023-03-05T18:06:42.826Z,71.40
2023-03-05T18:09:09.429Z,71.73
2023-03-05T18:11:35.861Z,72.10
2023-03-05T18:14:02.264Z,72.80
2023-03-05T18:16:28.697Z,73.07
2023-03-05T18:18:55.074Z,73.32
2023-03-05T18:21:24.342Z,72.64
2023-03-05T18:23:51.714Z,72.14
2023-03-05T18:26:18.041Z,72.31
2023-03-05T18:28:44.359Z,72.28
2023-03-05T18:31:10.753Z,71.78
2023-03-05T18:33:37.116Z,72.09
2023-03-05T18:36:03.460Z,71.95
2023-03-05T18:38:29.934Z,71.96
2023-03-05T18:40:56.998Z,71.89
2023-03-05T18:43:24.184Z,70.84
2023-03-05T18:45:52.558Z,73.90
2023-03-05T18:48:19.201Z,75.54
2023-03-05T18:50:46.136Z,77.02
2023-03-05T18:53:15.195Z,78.27
2023-03-05T18:55:41.562Z,78.88
2023-03-05T18:58:08.365Z,80.21
2023-03-05T19:00:35.184Z,81.35
2023-03-05T19:03:01.971Z,81.72
2023-03-05T19:05:28.286Z,81.43
2023-03-05T19:07:55.313Z,81.70
2023-03-05T19:10:22.597Z,81.63
2023-03-05T19:12:49.868Z,81.80
2023-03-05T19:15:16.964Z,82.31
2023-03-05T19:17:43.274Z,82.29
2023-03-05T19:20:13.161Z,82.23
2023-03-05T19:22:40.181Z,82.45
2023-03-05T19:25:07.099Z,82.99
2023-03-05T19:27:33.505Z,82.80
2023-03-05T19:29:59.824Z,83.01
2023-03-05T19:32:26.424Z,83.68
2023-03-05T19:34:56.980Z,83.95
2023-03-05T19:37:23.982Z,83.99
2023-03-05T19:39:50.328Z,83.94
2023-03-05T19:42:17.011Z,84.24
2023-03-05T19:44:43.344Z,83.86
2023-03-05T19:47:09.742Z,84.06
2023-03-05T19:49:36.092Z,84.69
2023-03-05T19:52:02.533Z,84.83
2023-03-05T19:54:28.860Z,84.51
2023-03-05T19:56:55.169Z,84.34
2023-03-05T19:59:22.560Z,84.07
2023-03-05T20:01:49.562Z,83.91
2023-03-05T20:04:21.405Z,83.25
2023-03-05T20:06:48.249Z,82.43
2023-03-05T20:09:15.265Z,81.63
2023-03-05T20:11:42.066Z,81.41
2023-03-05T20:14:09.441Z,81.23
2023-03-05T20:16:37.273Z,81.27
2023-03-05T20:19:05.719Z,81.64
2023-03-05T20:21:36.122Z,81.50
2023-03-05T20:24:09.252Z,82.27
2023-03-05T20:26:37.679Z,82.48
2023-03-05T20:29:04.199Z,82.59
2023-03-05T20:31:31.224Z,82.61
2023-03-05T20:33:57.660Z,82.41
2023-03-05T20:36:24.022Z,82.24
2023-03-05T20:38:50.466Z,82.98
2023-03-05T20:41:19.702Z,83.28
2023-03-05T20:43:48.692Z,83.29
2023-03-05T20:46:19.795Z,83.28
2023-03-05T20:48:47.299Z,83.27
2023-03-05T20:51:17.523Z,83.55
2023-03-05T20:53:44.605Z,82.47
2023-03-05T20:56:10.916Z,82.89
2023-03-05T20:58:37.248Z,83.07
2023-03-05T21:01:04.041Z,83.20
2023-03-05T21:03:30.389Z,82.88
2023-03-05T21:05:56.732Z,82.94
2023-03-05T21:08:23.965Z,82.64
2023-03-05T21:10:50.600Z,82.85
2023-03-05T21:13:16.952Z,82.35
2023-03-05T21:15:43.314Z,82.49
2023-03-05T21:18:09.661Z,82.32
2023-03-05T21:20:35.978Z,81.92
2023-03-05T21:23:02.305Z,81.96
2023-03-05T21:25:30.251Z,82.46
2023-03-05T21:28:07.293Z,82.38
2023-03-05T21:30:40.358Z,82.49
2023-03-05T21:33:09.141Z,82.95
2023-03-05T21:35:36.763Z,83.12
2023-03-05T21:38:04.722Z,82.77
2023-03-05T21:40:32.387Z,82.81
2023-03-05T21:42:58.898Z,82.78
2023-03-05T21:45:27.736Z,83.21
2023-03-05T21:47:54.268Z,83.37
2023-03-05T21:50:21.392Z,83.47
2023-03-05T21:52:47.690Z,83.57
2023-03-05T21:55:16.991Z,83.47
2023-03-05T21:57:43.643Z,83.87
2023-03-05T22:00:12.190Z,84.29
2023-03-05T22:02:40.126Z,84.64
2023-03-05T22:05:08.668Z,84.23
2023-03-05T22:07:34.973Z,83.90
2023-03-05T22:10:01.334Z,83.94
2023-03-05T22:12:48.698Z,83.93
2023-03-05T22:15:15.024Z,83.71
2023-03-05T22:17:41.363Z,83.91
2023-03-05T22:20:08.307Z,83.78
2023-03-05T22:22:34.631Z,83.63
2023-03-05T22:25:00.944Z,84.01
2023-03-05T22:27:27.261Z,84.09
2023-03-05T22:29:53.572Z,84.52
2023-03-05T22:32:19.943Z,83.88
2023-03-05T22:34:46.294Z,83.71
2023-03-05T22:37:12.655Z,83.81
2023-03-05T22:39:39.078Z,83.83
2023-03-05T22:42:05.630Z,83.72
2023-03-05T22:44:31.949Z,83.61
2023-03-05T22:46:58.295Z,83.79
2023-03-05T22:49:24.589Z,83.53
2023-03-05T22:51:50.909Z,83.76
2023-03-05T22:54:17.233Z,83.61
2023-03-05T22:56:43.549Z,83.46
2023-03-05T22:59:09.871Z,83.27
2023-03-05T23:01:36.186Z,83.14
2023-03-05T23:04:02.590Z,83.22
2023-03-05T23:06:29.284Z,83.20
2023-03-05T23:08:55.669Z,83.24
2023-03-05T23:11:22.025Z,83.45
2023-03-05T23:13:48.322Z,83.71
2023-03-05T23:16:14.755Z,83.30
2023-03-05T23:18:41.099Z,83.42
2023-03-05T23:21:07.421Z,83.76
2023-03-05T23:23:33.748Z,83.77
2023-03-05T23:26:00.060Z,83.50
2023-03-05T23:28:26.444Z,83.07
2023-03-05T23:30:52.827Z,83.77
2023-03-05T23:33:21.847Z,83.83
2023-03-05T23:35:55.351Z,83.95
2023-03-05T23:38:22.268Z,84.21
2023-03-05T23:40:51.590Z,83.77
2023-03-05T23:43:18.645Z,83.58
2023-03-05T23:45:47.728Z,83.86
2023-03-05T23:48:17.736Z,84.19
2023-03-05T23:50:46.906Z,84.17
2023-03-05T23:53:21.288Z,84.08
2023-03-05T23:55:48.439Z,83.97
2023-03-05T23:58:15.876Z,84.27
